sensor_id;sensor_type;location;lat;lon;timestamp;temperature;humidity
38333;DHT22;25748;46.670;14.272;2023-05-07T00:01:11;13.60;82.60
38333;DHT22;25748;46.670;14.272;2023-05-07T00:03:37;13.60;82.60
38333;DHT22;25748;46.670;14.272;2023-05-07T00:06:03;13.60;82.60
38333;DHT22;25748;46.670;14.272;2023-05-07T00:08:29;13.60;82.60
38333;DHT22;25748;46.670;14.272;2023-05-07T00:10:55;13.50;82.60
38333;DHT22;25748;46.670;14.272;2023-05-07T00:13:21;13.50;83.00
38333;DHT22;25748;46.670;14.272;2023-05-07T00:15:47;13.50;83.50
38333;DHT22;25748;46.670;14.272;2023-05-07T00:18:12;13.50;83.60
38333;DHT22;25748;46.670;14.272;2023-05-07T00:20:39;13.50;83.90
38333;DHT22;25748;46.670;14.272;2023-05-07T00:23:05;13.50;83.90
38333;DHT22;25748;46.670;14.272;2023-05-07T00:25:31;13.50;83.80
38333;DHT22;25748;46.670;14.272;2023-05-07T00:27:57;13.50;83.60
38333;DHT22;25748;46.670;14.272;2023-05-07T00:30:28;13.50;83.10
38333;DHT22;25748;46.670;14.272;2023-05-07T00:32:53;13.50;83.30
38333;DHT22;25748;46.670;14.272;2023-05-07T00:35:19;13.50;82.70
38333;DHT22;25748;46.670;14.272;2023-05-07T00:37:45;13.50;82.40
38333;DHT22;25748;46.670;14.272;2023-05-07T00:40:11;13.40;82.20
38333;DHT22;25748;46.670;14.272;2023-05-07T00:42:37;13.40;83.00
38333;DHT22;25748;46.670;14.272;2023-05-07T00:45:03;13.40;82.90
38333;DHT22;25748;46.670;14.272;2023-05-07T00:47:29;13.30;82.30
38333;DHT22;25748;46.670;14.272;2023-05-07T00:49:57;13.30;82.30
38333;DHT22;25748;46.670;14.272;2023-05-07T00:52:25;13.30;82.70
38333;DHT22;25748;46.670;14.272;2023-05-07T00:54:51;13.30;83.00
38333;DHT22;25748;46.670;14.272;2023-05-07T00:57:18;13.40;83.20
38333;DHT22;25748;46.670;14.272;2023-05-07T00:59:44;13.30;83.00
38333;DHT22;25748;46.670;14.272;2023-05-07T01:02:10;13.30;82.50
38333;DHT22;25748;46.670;14.272;2023-05-07T01:04:36;13.40;82.50
38333;DHT22;25748;46.670;14.272;2023-05-07T01:07:03;13.30;81.80
38333;DHT22;25748;46.670;14.272;2023-05-07T01:09:30;13.30;81.90
38333;DHT22;25748;46.670;14.272;2023-05-07T01:11:56;13.30;82.10
38333;DHT22;25748;46.670;14.272;2023-05-07T01:14:24;13.30;81.70
38333;DHT22;25748;46.670;14.272;2023-05-07T01:16:51;13.30;81.40
38333;DHT22;25748;46.670;14.272;2023-05-07T01:19:23;13.30;81.30
38333;DHT22;25748;46.670;14.272;2023-05-07T01:21:49;13.30;81.10
38333;DHT22;25748;46.670;14.272;2023-05-07T01:24:17;13.20;81.10
38333;DHT22;25748;46.670;14.272;2023-05-07T01:26:44;13.20;80.90
38333;DHT22;25748;46.670;14.272;2023-05-07T01:29:11;13.10;81.20
38333;DHT22;25748;46.670;14.272;2023-05-07T01:31:38;13.10;80.80
38333;DHT22;25748;46.670;14.272;2023-05-07T01:34:07;13.00;81.30
38333;DHT22;25748;46.670;14.272;2023-05-07T01:36:34;13.00;81.60
38333;DHT22;25748;46.670;14.272;2023-05-07T01:39:02;13.00;81.90
38333;DHT22;25748;46.670;14.272;2023-05-07T01:41:29;12.90;82.20
38333;DHT22;25748;46.670;14.272;2023-05-07T01:43:58;13.00;82.40
38333;DHT22;25748;46.670;14.272;2023-05-07T01:46:26;12.90;82.70
38333;DHT22;25748;46.670;14.272;2023-05-07T01:48:52;12.90;83.00
38333;DHT22;25748;46.670;14.272;2023-05-07T01:51:18;12.90;83.00
38333;DHT22;25748;46.670;14.272;2023-05-07T01:53:45;12.90;82.90
38333;DHT22;25748;46.670;14.272;2023-05-07T01:56:13;13.00;83.30
38333;DHT22;25748;46.670;14.272;2023-05-07T01:58:39;13.00;82.90
38333;DHT22;25748;46.670;14.272;2023-05-07T02:01:05;12.90;82.60
38333;DHT22;25748;46.670;14.272;2023-05-07T02:03:31;12.80;83.50
38333;DHT22;25748;46.670;14.272;2023-05-07T02:05:56;12.80;84.00
38333;DHT22;25748;46.670;14.272;2023-05-07T02:08:22;12.90;84.60
38333;DHT22;25748;46.670;14.272;2023-05-07T02:10:48;13.00;84.80
38333;DHT22;25748;46.670;14.272;2023-05-07T02:13:15;13.00;84.70
38333;DHT22;25748;46.670;14.272;2023-05-07T02:15:40;13.00;84.40
38333;DHT22;25748;46.670;14.272;2023-05-07T02:18:08;13.00;84.20
38333;DHT22;25748;46.670;14.272;2023-05-07T02:20:36;13.00;83.70
38333;DHT22;25748;46.670;14.272;2023-05-07T02:23:02;13.00;84.10
38333;DHT22;25748;46.670;14.272;2023-05-07T02:25:28;13.00;83.70
38333;DHT22;25748;46.670;14.272;2023-05-07T02:27:54;13.00;83.60
38333;DHT22;25748;46.670;14.272;2023-05-07T02:30:20;13.00;84.30
38333;DHT22;25748;46.670;14.272;2023-05-07T02:32:46;12.90;84.40
38333;DHT22;25748;46.670;14.272;2023-05-07T02:35:12;12.90;85.00
38333;DHT22;25748;46.670;14.272;2023-05-07T02:37:38;13.00;85.50
38333;DHT22;25748;46.670;14.272;2023-05-07T02:40:04;13.00;85.70
38333;DHT22;25748;46.670;14.272;2023-05-07T02:42:30;13.10;85.60
38333;DHT22;25748;46.670;14.272;2023-05-07T02:44:55;13.10;84.90
38333;DHT22;25748;46.670;14.272;2023-05-07T02:47:21;13.00;84.90
38333;DHT22;25748;46.670;14.272;2023-05-07T02:49:47;13.00;85.10
38333;DHT22;25748;46.670;14.272;2023-05-07T02:52:13;13.00;85.80
38333;DHT22;25748;46.670;14.272;2023-05-07T02:54:39;13.10;86.20
38333;DHT22;25748;46.670;14.272;2023-05-07T02:57:04;13.10;86.20
38333;DHT22;25748;46.670;14.272;2023-05-07T02:59:31;13.20;86.30
38333;DHT22;25748;46.670;14.272;2023-05-07T03:01:57;13.20;86.00
38333;DHT22;25748;46.670;14.272;2023-05-07T03:04:23;13.20;86.20
38333;DHT22;25748;46.670;14.272;2023-05-07T03:06:49;13.20;85.80
38333;DHT22;25748;46.670;14.272;2023-05-07T03:09:14;13.20;85.50
38333;DHT22;25748;46.670;14.272;2023-05-07T03:11:40;13.20;84.90
38333;DHT22;25748;46.670;14.272;2023-05-07T03:14:06;13.20;85.20
38333;DHT22;25748;46.670;14.272;2023-05-07T03:16:31;13.20;85.30
38333;DHT22;25748;46.670;14.272;2023-05-07T03:18:57;13.20;85.00
38333;DHT22;25748;46.670;14.272;2023-05-07T03:21:23;13.20;84.80
38333;DHT22;25748;46.670;14.272;2023-05-07T03:23:48;13.20;84.90
38333;DHT22;25748;46.670;14.272;2023-05-07T03:26:14;13.20;85.00
38333;DHT22;25748;46.670;14.272;2023-05-07T03:28:40;13.20;85.10
38333;DHT22;25748;46.670;14.272;2023-05-07T03:31:06;13.20;84.90
38333;DHT22;25748;46.670;14.272;2023-05-07T03:33:34;13.30;84.90
38333;DHT22;25748;46.670;14.272;2023-05-07T03:36:01;13.30;84.50
38333;DHT22;25748;46.670;14.272;2023-05-07T03:38:26;13.30;84.00
38333;DHT22;25748;46.670;14.272;2023-05-07T03:40:52;13.30;84.10
38333;DHT22;25748;46.670;14.272;2023-05-07T03:43:18;13.30;83.90
38333;DHT22;25748;46.670;14.272;2023-05-07T03:45:45;13.30;83.30
38333;DHT22;25748;46.670;14.272;2023-05-07T03:48:11;13.30;83.50
38333;DHT22;25748;46.670;14.272;2023-05-07T03:50:37;13.30;83.30
38333;DHT22;25748;46.670;14.272;2023-05-07T03:53:02;13.30;83.10
38333;DHT22;25748;46.670;14.272;2023-05-07T03:55:28;13.30;82.90
38333;DHT22;25748;46.670;14.272;2023-05-07T03:57:54;13.30;82.70
38333;DHT22;25748;46.670;14.272;2023-05-07T04:00:22;13.30;82.60
38333;DHT22;25748;46.670;14.272;2023-05-07T04:02:49;13.30;82.50
38333;DHT22;25748;46.670;14.272;2023-05-07T04:05:15;13.40;82.50
38333;DHT22;25748;46.670;14.272;2023-05-07T04:07:41;13.30;81.60
38333;DHT22;25748;46.670;14.272;2023-05-07T04:10:07;13.30;81.60
38333;DHT22;25748;46.670;14.272;2023-05-07T04:12:33;13.30;81.70
38333;DHT22;25748;46.670;14.272;2023-05-07T04:14:59;13.30;81.70
38333;DHT22;25748;46.670;14.272;2023-05-07T04:17:25;13.30;81.70
38333;DHT22;25748;46.670;14.272;2023-05-07T04:19:50;13.30;81.70
38333;DHT22;25748;46.670;14.272;2023-05-07T04:22:16;13.30;81.70
38333;DHT22;25748;46.670;14.272;2023-05-07T04:24:41;13.30;81.70
38333;DHT22;25748;46.670;14.272;2023-05-07T04:27:07;13.30;81.60
38333;DHT22;25748;46.670;14.272;2023-05-07T04:29:33;13.30;81.90
38333;DHT22;25748;46.670;14.272;2023-05-07T04:31:59;13.30;81.90
38333;DHT22;25748;46.670;14.272;2023-05-07T04:34:24;13.30;82.10
38333;DHT22;25748;46.670;14.272;2023-05-07T04:36:50;13.40;82.40
38333;DHT22;25748;46.670;14.272;2023-05-07T04:39:15;13.30;82.20
38333;DHT22;25748;46.670;14.272;2023-05-07T04:41:41;13.40;82.10
38333;DHT22;25748;46.670;14.272;2023-05-07T04:44:07;13.40;82.10
38333;DHT22;25748;46.670;14.272;2023-05-07T04:46:34;13.40;81.90
38333;DHT22;25748;46.670;14.272;2023-05-07T04:49:00;13.40;81.80
38333;DHT22;25748;46.670;14.272;2023-05-07T04:51:25;13.40;81.90
38333;DHT22;25748;46.670;14.272;2023-05-07T04:53:51;13.40;81.70
38333;DHT22;25748;46.670;14.272;2023-05-07T04:56:17;13.40;81.70
38333;DHT22;25748;46.670;14.272;2023-05-07T04:58:42;13.50;81.50
38333;DHT22;25748;46.670;14.272;2023-05-07T05:01:08;13.50;81.20
38333;DHT22;25748;46.670;14.272;2023-05-07T05:03:34;13.50;81.20
38333;DHT22;25748;46.670;14.272;2023-05-07T05:05:59;13.50;81.10
38333;DHT22;25748;46.670;14.272;2023-05-07T05:08:25;13.50;80.50
38333;DHT22;25748;46.670;14.272;2023-05-07T05:10:51;13.40;80.90
38333;DHT22;25748;46.670;14.272;2023-05-07T05:13:16;13.50;81.20
38333;DHT22;25748;46.670;14.272;2023-05-07T05:15:43;13.50;81.30
38333;DHT22;25748;46.670;14.272;2023-05-07T05:18:08;13.50;81.20
38333;DHT22;25748;46.670;14.272;2023-05-07T05:20:34;13.50;81.50
38333;DHT22;25748;46.670;14.272;2023-05-07T05:22:59;13.60;81.30
38333;DHT22;25748;46.670;14.272;2023-05-07T05:25:25;13.60;81.30
38333;DHT22;25748;46.670;14.272;2023-05-07T05:27:51;13.60;81.10
38333;DHT22;25748;46.670;14.272;2023-05-07T05:30:17;13.70;81.00
38333;DHT22;25748;46.670;14.272;2023-05-07T05:32:42;13.70;80.80
38333;DHT22;25748;46.670;14.272;2023-05-07T05:35:09;13.70;80.10
38333;DHT22;25748;46.670;14.272;2023-05-07T05:37:35;13.60;79.80
38333;DHT22;25748;46.670;14.272;2023-05-07T05:40:01;13.60;80.40
38333;DHT22;25748;46.670;14.272;2023-05-07T05:42:27;13.60;81.10
38333;DHT22;25748;46.670;14.272;2023-05-07T05:44:53;13.60;81.50
38333;DHT22;25748;46.670;14.272;2023-05-07T05:47:18;13.70;82.10
38333;DHT22;25748;46.670;14.272;2023-05-07T05:49:44;13.70;82.20
38333;DHT22;25748;46.670;14.272;2023-05-07T05:52:12;13.70;81.80
38333;DHT22;25748;46.670;14.272;2023-05-07T05:54:39;13.70;81.80
38333;DHT22;25748;46.670;14.272;2023-05-07T05:57:04;13.80;81.80
38333;DHT22;25748;46.670;14.272;2023-05-07T05:59:31;13.80;81.20
38333;DHT22;25748;46.670;14.272;2023-05-07T06:02:00;13.80;80.50
38333;DHT22;25748;46.670;14.272;2023-05-07T06:04:26;13.90;80.00
38333;DHT22;25748;46.670;14.272;2023-05-07T06:06:55;13.90;79.30
38333;DHT22;25748;46.670;14.272;2023-05-07T06:09:37;13.90;79.10
38333;DHT22;25748;46.670;14.272;2023-05-07T06:12:03;13.90;78.80
38333;DHT22;25748;46.670;14.272;2023-05-07T06:14:28;13.90;78.20
38333;DHT22;25748;46.670;14.272;2023-05-07T06:16:54;13.90;78.00
38333;DHT22;25748;46.670;14.272;2023-05-07T06:19:20;13.90;78.10
38333;DHT22;25748;46.670;14.272;2023-05-07T06:21:49;13.90;78.60
38333;DHT22;25748;46.670;14.272;2023-05-07T06:24:15;14.00;78.30
38333;DHT22;25748;46.670;14.272;2023-05-07T06:26:41;14.00;78.50
38333;DHT22;25748;46.670;14.272;2023-05-07T06:29:09;14.00;78.10
38333;DHT22;25748;46.670;14.272;2023-05-07T06:31:36;14.00;78.10
38333;DHT22;25748;46.670;14.272;2023-05-07T06:34:03;14.00;78.40
38333;DHT22;25748;46.670;14.272;2023-05-07T06:36:30;14.10;78.10
38333;DHT22;25748;46.670;14.272;2023-05-07T06:38:56;14.10;77.70
38333;DHT22;25748;46.670;14.272;2023-05-07T06:41:26;14.10;77.40
38333;DHT22;25748;46.670;14.272;2023-05-07T06:43:51;14.00;76.70
38333;DHT22;25748;46.670;14.272;2023-05-07T06:46:17;14.00;76.90
38333;DHT22;25748;46.670;14.272;2023-05-07T06:48:43;13.90;76.60
38333;DHT22;25748;46.670;14.272;2023-05-07T06:51:09;14.00;76.70
38333;DHT22;25748;46.670;14.272;2023-05-07T06:53:35;14.00;76.40
38333;DHT22;25748;46.670;14.272;2023-05-07T06:56:00;14.00;74.40
38333;DHT22;25748;46.670;14.272;2023-05-07T06:58:26;14.00;74.00
38333;DHT22;25748;46.670;14.272;2023-05-07T07:00:52;14.10;75.30
38333;DHT22;25748;46.670;14.272;2023-05-07T07:03:18;14.10;75.50
38333;DHT22;25748;46.670;14.272;2023-05-07T07:05:43;14.20;75.00
38333;DHT22;25748;46.670;14.272;2023-05-07T07:08:10;14.30;74.60
38333;DHT22;25748;46.670;14.272;2023-05-07T07:10:35;14.30;75.20
38333;DHT22;25748;46.670;14.272;2023-05-07T07:13:01;14.40;75.10
38333;DHT22;25748;46.670;14.272;2023-05-07T07:15:28;14.40;74.80
38333;DHT22;25748;46.670;14.272;2023-05-07T07:17:53;14.40;74.70
38333;DHT22;25748;46.670;14.272;2023-05-07T07:20:19;14.50;75.20
38333;DHT22;25748;46.670;14.272;2023-05-07T07:22:45;14.50;74.90
38333;DHT22;25748;46.670;14.272;2023-05-07T07:25:11;14.50;73.40
38333;DHT22;25748;46.670;14.272;2023-05-07T07:27:37;14.50;73.50
38333;DHT22;25748;46.670;14.272;2023-05-07T07:30:03;14.60;73.40
38333;DHT22;25748;46.670;14.272;2023-05-07T07:32:29;14.60;73.00
38333;DHT22;25748;46.670;14.272;2023-05-07T07:34:58;14.60;72.70
38333;DHT22;25748;46.670;14.272;2023-05-07T07:37:23;14.70;72.40
38333;DHT22;25748;46.670;14.272;2023-05-07T07:39:51;14.70;72.20
38333;DHT22;25748;46.670;14.272;2023-05-07T07:42:16;14.70;72.10
38333;DHT22;25748;46.670;14.272;2023-05-07T07:44:50;14.70;70.30
38333;DHT22;25748;46.670;14.272;2023-05-07T07:47:23;14.70;70.00
38333;DHT22;25748;46.670;14.272;2023-05-07T07:49:50;14.60;69.10
38333;DHT22;25748;46.670;14.272;2023-05-07T07:57:44;14.70;71.70
38333;DHT22;25748;46.670;14.272;2023-05-07T08:00:17;14.80;71.20
38333;DHT22;25748;46.670;14.272;2023-05-07T08:02:48;14.90;70.90
38333;DHT22;25748;46.670;14.272;2023-05-07T08:05:17;15.00;70.90
38333;DHT22;25748;46.670;14.272;2023-05-07T08:07:42;15.10;70.50
38333;DHT22;25748;46.670;14.272;2023-05-07T08:10:08;15.10;70.00
38333;DHT22;25748;46.670;14.272;2023-05-07T08:12:34;15.10;68.90
38333;DHT22;25748;46.670;14.272;2023-05-07T08:15:00;15.10;69.50
38333;DHT22;25748;46.670;14.272;2023-05-07T08:17:27;15.20;69.10
38333;DHT22;25748;46.670;14.272;2023-05-07T08:19:52;15.20;68.60
38333;DHT22;25748;46.670;14.272;2023-05-07T08:22:18;15.20;69.60
38333;DHT22;25748;46.670;14.272;2023-05-07T08:24:44;15.30;69.10
38333;DHT22;25748;46.670;14.272;2023-05-07T08:27:11;15.30;69.30
38333;DHT22;25748;46.670;14.272;2023-05-07T08:29:37;15.40;69.30
38333;DHT22;25748;46.670;14.272;2023-05-07T08:32:05;15.50;69.20
38333;DHT22;25748;46.670;14.272;2023-05-07T08:34:32;15.50;68.30
38333;DHT22;25748;46.670;14.272;2023-05-07T08:36:58;15.60;68.60
38333;DHT22;25748;46.670;14.272;2023-05-07T08:39:24;15.60;68.50
38333;DHT22;25748;46.670;14.272;2023-05-07T08:41:52;15.60;67.30
38333;DHT22;25748;46.670;14.272;2023-05-07T08:44:22;15.70;67.20
38333;DHT22;25748;46.670;14.272;2023-05-07T08:46:52;15.70;67.40
38333;DHT22;25748;46.670;14.272;2023-05-07T08:49:20;15.70;66.60
38333;DHT22;25748;46.670;14.272;2023-05-07T08:51:46;15.70;65.80
38333;DHT22;25748;46.670;14.272;2023-05-07T08:54:12;15.80;66.60
38333;DHT22;25748;46.670;14.272;2023-05-07T08:56:42;15.90;65.70
38333;DHT22;25748;46.670;14.272;2023-05-07T08:59:08;15.90;63.00
38333;DHT22;25748;46.670;14.272;2023-05-07T09:01:35;15.80;63.00
38333;DHT22;25748;46.670;14.272;2023-05-07T09:04:01;15.90;64.20
38333;DHT22;25748;46.670;14.272;2023-05-07T09:06:28;16.10;63.20
38333;DHT22;25748;46.670;14.272;2023-05-07T09:08:57;16.20;62.60
38333;DHT22;25748;46.670;14.272;2023-05-07T09:11:30;16.30;62.10
38333;DHT22;25748;46.670;14.272;2023-05-07T09:13:58;16.30;62.10
38333;DHT22;25748;46.670;14.272;2023-05-07T09:16:30;16.30;62.40
38333;DHT22;25748;46.670;14.272;2023-05-07T09:18:59;16.30;62.20
38333;DHT22;25748;46.670;14.272;2023-05-07T09:21:32;16.30;61.60
38333;DHT22;25748;46.670;14.272;2023-05-07T09:23:58;16.10;61.80
38333;DHT22;25748;46.670;14.272;2023-05-07T09:26:24;16.00;62.20
38333;DHT22;25748;46.670;14.272;2023-05-07T09:28:51;15.90;61.30
38333;DHT22;25748;46.670;14.272;2023-05-07T09:31:17;15.80;62.10
38333;DHT22;25748;46.670;14.272;2023-05-07T09:33:43;15.80;63.30
38333;DHT22;25748;46.670;14.272;2023-05-07T09:36:09;15.90;62.80
38333;DHT22;25748;46.670;14.272;2023-05-07T09:38:36;16.00;62.40
38333;DHT22;25748;46.670;14.272;2023-05-07T09:41:12;15.90;61.40
38333;DHT22;25748;46.670;14.272;2023-05-07T09:43:39;16.00;62.80
38333;DHT22;25748;46.670;14.272;2023-05-07T09:46:08;16.10;62.50
38333;DHT22;25748;46.670;14.272;2023-05-07T09:48:38;16.20;62.50
38333;DHT22;25748;46.670;14.272;2023-05-07T09:51:15;16.20;60.50
38333;DHT22;25748;46.670;14.272;2023-05-07T09:53:41;16.10;61.40
38333;DHT22;25748;46.670;14.272;2023-05-07T09:56:11;16.20;61.00
38333;DHT22;25748;46.670;14.272;2023-05-07T09:58:37;16.30;61.10
38333;DHT22;25748;46.670;14.272;2023-05-07T10:01:05;16.30;60.90
38333;DHT22;25748;46.670;14.272;2023-05-07T10:03:32;16.40;60.70
38333;DHT22;25748;46.670;14.272;2023-05-07T10:05:59;16.30;60.60
38333;DHT22;25748;46.670;14.272;2023-05-07T10:08:26;16.20;60.80
38333;DHT22;25748;46.670;14.272;2023-05-07T10:10:52;16.30;60.00
38333;DHT22;25748;46.670;14.272;2023-05-07T10:13:19;16.20;61.20
38333;DHT22;25748;46.670;14.272;2023-05-07T10:15:45;16.40;61.70
38333;DHT22;25748;46.670;14.272;2023-05-07T10:18:12;16.40;61.50
38333;DHT22;25748;46.670;14.272;2023-05-07T10:20:39;16.60;60.90
38333;DHT22;25748;46.670;14.272;2023-05-07T10:23:05;16.70;60.60
38333;DHT22;25748;46.670;14.272;2023-05-07T10:25:32;16.70;61.90
38333;DHT22;25748;46.670;14.272;2023-05-07T10:28:03;16.70;62.20
38333;DHT22;25748;46.670;14.272;2023-05-07T10:33:02;16.60;60.20
38333;DHT22;25748;46.670;14.272;2023-05-07T10:35:32;16.60;59.90
38333;DHT22;25748;46.670;14.272;2023-05-07T10:38:02;16.70;60.10
38333;DHT22;25748;46.670;14.272;2023-05-07T10:40:28;16.80;60.50
38333;DHT22;25748;46.670;14.272;2023-05-07T10:42:58;16.80;60.60
38333;DHT22;25748;46.670;14.272;2023-05-07T10:45:28;16.90;61.30
38333;DHT22;25748;46.670;14.272;2023-05-07T10:48:17;16.90;60.30
38333;DHT22;25748;46.670;14.272;2023-05-07T10:50:43;17.00;60.60
38333;DHT22;25748;46.670;14.272;2023-05-07T10:55:47;16.90;59.30
38333;DHT22;25748;46.670;14.272;2023-05-07T10:58:24;16.90;59.50
38333;DHT22;25748;46.670;14.272;2023-05-07T11:00:59;16.80;59.00
38333;DHT22;25748;46.670;14.272;2023-05-07T11:03:27;17.00;60.00
38333;DHT22;25748;46.670;14.272;2023-05-07T11:06:14;17.30;60.90
38333;DHT22;25748;46.670;14.272;2023-05-07T11:08:54;17.80;61.60
38333;DHT22;25748;46.670;14.272;2023-05-07T11:11:29;18.20;59.40
38333;DHT22;25748;46.670;14.272;2023-05-07T11:14:05;18.00;57.90
38333;DHT22;25748;46.670;14.272;2023-05-07T11:16:32;18.10;56.90
38333;DHT22;25748;46.670;14.272;2023-05-07T11:19:01;18.40;58.40
38333;DHT22;25748;46.670;14.272;2023-05-07T11:21:33;18.80;57.30
38333;DHT22;25748;46.670;14.272;2023-05-07T11:24:00;18.80;57.40
38333;DHT22;25748;46.670;14.272;2023-05-07T11:26:31;18.90;56.90
38333;DHT22;25748;46.670;14.272;2023-05-07T11:28:57;19.20;56.60
38333;DHT22;25748;46.670;14.272;2023-05-07T11:31:27;19.40;56.90
38333;DHT22;25748;46.670;14.272;2023-05-07T11:33:57;19.60;55.50
38333;DHT22;25748;46.670;14.272;2023-05-07T11:36:23;19.40;56.10
38333;DHT22;25748;46.670;14.272;2023-05-07T11:38:49;19.70;55.30
38333;DHT22;25748;46.670;14.272;2023-05-07T11:41:15;19.80;54.90
38333;DHT22;25748;46.670;14.272;2023-05-07T11:43:58;19.40;54.40
38333;DHT22;25748;46.670;14.272;2023-05-07T11:46:24;19.30;56.10
38333;DHT22;25748;46.670;14.272;2023-05-07T11:48:50;19.30;56.50
38333;DHT22;25748;46.670;14.272;2023-05-07T11:51:21;19.50;56.90
38333;DHT22;25748;46.670;14.272;2023-05-07T11:53:48;19.50;56.10
38333;DHT22;25748;46.670;14.272;2023-05-07T11:56:15;19.60;55.30
38333;DHT22;25748;46.670;14.272;2023-05-07T11:58:42;19.80;56.10
38333;DHT22;25748;46.670;14.272;2023-05-07T12:01:10;19.80;55.40
38333;DHT22;25748;46.670;14.272;2023-05-07T12:03:37;19.70;54.30
38333;DHT22;25748;46.670;14.272;2023-05-07T12:06:07;19.90;56.00
38333;DHT22;25748;46.670;14.272;2023-05-07T12:08:32;20.00;55.50
38333;DHT22;25748;46.670;14.272;2023-05-07T12:10:58;20.40;54.90
38333;DHT22;25748;46.670;14.272;2023-05-07T12:13:25;20.60;54.60
38333;DHT22;25748;46.670;14.272;2023-05-07T12:15:55;21.10;53.90
38333;DHT22;25748;46.670;14.272;2023-05-07T12:18:22;21.30;54.50
38333;DHT22;25748;46.670;14.272;2023-05-07T12:20:48;21.20;53.40
38333;DHT22;25748;46.670;14.272;2023-05-07T12:23:15;20.80;53.50
38333;DHT22;25748;46.670;14.272;2023-05-07T12:25:42;21.20;54.00
38333;DHT22;25748;46.670;14.272;2023-05-07T12:28:21;21.40;53.90
38333;DHT22;25748;46.670;14.272;2023-05-07T12:30:47;21.30;53.30
38333;DHT22;25748;46.670;14.272;2023-05-07T12:33:24;21.50;52.70
38333;DHT22;25748;46.670;14.272;2023-05-07T12:35:50;21.40;53.40
38333;DHT22;25748;46.670;14.272;2023-05-07T12:38:17;21.30;52.70
38333;DHT22;25748;46.670;14.272;2023-05-07T12:40:47;21.40;53.50
38333;DHT22;25748;46.670;14.272;2023-05-07T12:43:26;21.40;52.80
38333;DHT22;25748;46.670;14.272;2023-05-07T12:45:54;21.60;51.80
38333;DHT22;25748;46.670;14.272;2023-05-07T12:48:21;21.70;52.10
38333;DHT22;25748;46.670;14.272;2023-05-07T12:50:51;21.60;51.10
38333;DHT22;25748;46.670;14.272;2023-05-07T12:53:17;21.20;51.70
38333;DHT22;25748;46.670;14.272;2023-05-07T12:55:47;20.90;51.70
38333;DHT22;25748;46.670;14.272;2023-05-07T12:58:30;20.90;53.30
38333;DHT22;25748;46.670;14.272;2023-05-07T13:00:58;20.80;53.30
38333;DHT22;25748;46.670;14.272;2023-05-07T13:03:34;20.70;53.40
38333;DHT22;25748;46.670;14.272;2023-05-07T13:06:07;20.80;53.00
38333;DHT22;25748;46.670;14.272;2023-05-07T13:08:39;21.00;52.80
38333;DHT22;25748;46.670;14.272;2023-05-07T13:11:07;21.20;52.50
38333;DHT22;25748;46.670;14.272;2023-05-07T13:13:35;21.00;52.50
38333;DHT22;25748;46.670;14.272;2023-05-07T13:16:04;20.90;52.30
38333;DHT22;25748;46.670;14.272;2023-05-07T13:18:31;20.70;52.00
38333;DHT22;25748;46.670;14.272;2023-05-07T13:20:58;21.00;52.80
38333;DHT22;25748;46.670;14.272;2023-05-07T13:23:26;20.90;52.70
38333;DHT22;25748;46.670;14.272;2023-05-07T13:25:52;20.90;53.30
38333;DHT22;25748;46.670;14.272;2023-05-07T13:28:21;21.00;52.90
38333;DHT22;25748;46.670;14.272;2023-05-07T13:30:49;20.90;53.00
38333;DHT22;25748;46.670;14.272;2023-05-07T13:33:19;21.10;53.40
38333;DHT22;25748;46.670;14.272;2023-05-07T13:35:45;21.20;52.50
38333;DHT22;25748;46.670;14.272;2023-05-07T13:38:11;21.20;52.80
38333;DHT22;25748;46.670;14.272;2023-05-07T13:40:36;21.20;53.00
38333;DHT22;25748;46.670;14.272;2023-05-07T13:43:02;21.40;52.70
38333;DHT22;25748;46.670;14.272;2023-05-07T13:45:29;21.30;52.40
38333;DHT22;25748;46.670;14.272;2023-05-07T13:47:56;21.00;52.70
38333;DHT22;25748;46.670;14.272;2023-05-07T13:50:22;21.10;53.20
38333;DHT22;25748;46.670;14.272;2023-05-07T13:52:48;21.00;52.80
38333;DHT22;25748;46.670;14.272;2023-05-07T13:55:20;20.90;53.40
38333;DHT22;25748;46.670;14.272;2023-05-07T13:57:47;20.80;53.20
38333;DHT22;25748;46.670;14.272;2023-05-07T14:00:13;20.80;53.70
38333;DHT22;25748;46.670;14.272;2023-05-07T14:02:40;20.90;53.70
38333;DHT22;25748;46.670;14.272;2023-05-07T14:05:06;20.90;53.80
38333;DHT22;25748;46.670;14.272;2023-05-07T14:07:32;21.00;53.10
38333;DHT22;25748;46.670;14.272;2023-05-07T14:09:58;21.00;53.00
38333;DHT22;25748;46.670;14.272;2023-05-07T14:12:24;21.00;53.20
38333;DHT22;25748;46.670;14.272;2023-05-07T14:14:50;20.80;53.40
38333;DHT22;25748;46.670;14.272;2023-05-07T14:17:18;20.80;53.90
38333;DHT22;25748;46.670;14.272;2023-05-07T14:19:45;20.70;54.10
38333;DHT22;25748;46.670;14.272;2023-05-07T14:22:13;20.50;54.40
38333;DHT22;25748;46.670;14.272;2023-05-07T14:24:39;20.40;54.30
38333;DHT22;25748;46.670;14.272;2023-05-07T14:27:05;20.40;55.10
38333;DHT22;25748;46.670;14.272;2023-05-07T14:29:31;20.40;55.00
38333;DHT22;25748;46.670;14.272;2023-05-07T14:31:56;20.40;55.00
38333;DHT22;25748;46.670;14.272;2023-05-07T14:34:23;20.30;55.10
38333;DHT22;25748;46.670;14.272;2023-05-07T14:36:49;20.30;54.70
38333;DHT22;25748;46.670;14.272;2023-05-07T14:39:14;20.10;54.40
38333;DHT22;25748;46.670;14.272;2023-05-07T14:41:40;20.10;55.10
38333;DHT22;25748;46.670;14.272;2023-05-07T14:44:06;20.00;55.70
38333;DHT22;25748;46.670;14.272;2023-05-07T14:46:33;19.80;56.20
38333;DHT22;25748;46.670;14.272;2023-05-07T14:48:59;19.30;56.40
38333;DHT22;25748;46.670;14.272;2023-05-07T14:51:25;18.70;56.60
38333;DHT22;25748;46.670;14.272;2023-05-07T14:53:51;18.40;57.40
38333;DHT22;25748;46.670;14.272;2023-05-07T14:56:17;17.80;57.40
38333;DHT22;25748;46.670;14.272;2023-05-07T14:58:43;17.50;58.90
38333;DHT22;25748;46.670;14.272;2023-05-07T15:01:09;17.00;59.60
38333;DHT22;25748;46.670;14.272;2023-05-07T15:03:36;16.70;59.70
38333;DHT22;25748;46.670;14.272;2023-05-07T15:06:05;16.40;59.90
38333;DHT22;25748;46.670;14.272;2023-05-07T15:08:31;16.40;60.50
38333;DHT22;25748;46.670;14.272;2023-05-07T15:10:57;16.40;60.60
38333;DHT22;25748;46.670;14.272;2023-05-07T15:13:22;16.30;60.20
38333;DHT22;25748;46.670;14.272;2023-05-07T15:15:48;16.20;61.20
38333;DHT22;25748;46.670;14.272;2023-05-07T15:18:15;16.20;61.50
38333;DHT22;25748;46.670;14.272;2023-05-07T15:20:44;16.10;61.90
38333;DHT22;25748;46.670;14.272;2023-05-07T15:23:10;16.10;62.40
38333;DHT22;25748;46.670;14.272;2023-05-07T15:25:37;16.00;63.00